sensor_id;sensor_type;location;lat;lon;timestamp;P1;durP1;ratioP1;P2;durP2;ratioP2
47892;SDS011;33650;51.064;13.756;2022-10-16T00:01:51;6.00;;;4.50;;
47892;SDS011;33650;51.064;13.756;2022-10-16T00:04:22;5.45;;;4.93;;
47892;SDS011;33650;51.064;13.756;2022-10-16T00:06:53;8.32;;;4.13;;
47892;SDS011;33650;51.064;13.756;2022-10-16T00:09:24;7.63;;;4.40;;
47892;SDS011;33650;51.064;13.756;2022-10-16T00:11:55;6.43;;;3.65;;
47892;SDS011;33650;51.064;13.756;2022-10-16T00:14:26;5.40;;;3.75;;
47892;SDS011;33650;51.064;13.756;2022-10-16T00:16:57;5.38;;;4.57;;
47892;SDS011;33650;51.064;13.756;2022-10-16T00:19:28;6.15;;;4.00;;
47892;SDS011;33650;51.064;13.756;2022-10-16T00:21:59;6.85;;;3.55;;
47892;SDS011;33650;51.064;13.756;2022-10-16T00:24:30;7.63;;;4.90;;
47892;SDS011;33650;51.064;13.756;2022-10-16T00:27:01;5.50;;;4.30;;
47892;SDS011;33650;51.064;13.756;2022-10-16T00:29:32;7.70;;;5.93;;
47892;SDS011;33650;51.064;13.756;2022-10-16T00:32:03;8.32;;;5.57;;
47892;SDS011;33650;51.064;13.756;2022-10-16T00:34:34;7.75;;;4.22;;
47892;SDS011;33650;51.064;13.756;2022-10-16T00:37:06;5.25;;;4.75;;
47892;SDS011;33650;51.064;13.756;2022-10-16T00:39:37;8.00;;;4.55;;
47892;SDS011;33650;51.064;13.756;2022-10-16T00:42:10;5.20;;;3.78;;
47892;SDS011;33650;51.064;13.756;2022-10-16T00:47:32;5.25;;;3.50;;
47892;SDS011;33650;51.064;13.756;2022-10-16T00:50:07;4.88;;;3.88;;
47892;SDS011;33650;51.064;13.756;2022-10-16T00:52:39;5.43;;;3.97;;
47892;SDS011;33650;51.064;13.756;2022-10-16T00:55:12;6.55;;;4.32;;
47892;SDS011;33650;51.064;13.756;2022-10-16T00:57:43;3.80;;;2.47;;
47892;SDS011;33650;51.064;13.756;2022-10-16T01:00:19;5.10;;;3.95;;
47892;SDS011;33650;51.064;13.756;2022-10-16T01:02:55;4.47;;;2.97;;
47892;SDS011;33650;51.064;13.756;2022-10-16T01:05:31;4.97;;;4.03;;
47892;SDS011;33650;51.064;13.756;2022-10-16T01:08:16;5.03;;;4.03;;
47892;SDS011;33650;51.064;13.756;2022-10-16T01:10:52;3.78;;;3.00;;
47892;SDS011;33650;51.064;13.756;2022-10-16T01:13:26;4.65;;;3.60;;
47892;SDS011;33650;51.064;13.756;2022-10-16T01:16:04;5.32;;;3.65;;
47892;SDS011;33650;51.064;13.756;2022-10-16T01:18:37;4.35;;;3.42;;
47892;SDS011;33650;51.064;13.756;2022-10-16T01:21:12;4.65;;;4.13;;
47892;SDS011;33650;51.064;13.756;2022-10-16T01:29:29;4.10;;;2.97;;
47892;SDS011;33650;51.064;13.756;2022-10-16T01:32:01;4.97;;;3.42;;
47892;SDS011;33650;51.064;13.756;2022-10-16T01:34:42;4.57;;;3.67;;
47892;SDS011;33650;51.064;13.756;2022-10-16T01:37:18;5.32;;;3.63;;
47892;SDS011;33650;51.064;13.756;2022-10-16T01:39:51;5.55;;;3.97;;
47892;SDS011;33650;51.064;13.756;2022-10-16T01:42:26;4.07;;;3.25;;
47892;SDS011;33650;51.064;13.756;2022-10-16T01:44:59;5.03;;;4.45;;
47892;SDS011;33650;51.064;13.756;2022-10-16T01:47:31;7.38;;;4.50;;
47892;SDS011;33650;51.064;13.756;2022-10-16T01:50:03;4.80;;;3.65;;
47892;SDS011;33650;51.064;13.756;2022-10-16T01:52:36;4.70;;;3.53;;
47892;SDS011;33650;51.064;13.756;2022-10-16T01:55:08;4.53;;;3.10;;
47892;SDS011;33650;51.064;13.756;2022-10-16T01:57:41;4.10;;;3.65;;
47892;SDS011;33650;51.064;13.756;2022-10-16T02:00:14;6.97;;;4.70;;
47892;SDS011;33650;51.064;13.756;2022-10-16T02:02:47;7.43;;;4.97;;
47892;SDS011;33650;51.064;13.756;2022-10-16T02:07:54;6.43;;;4.55;;
47892;SDS011;33650;51.064;13.756;2022-10-16T02:10:25;8.98;;;4.97;;
47892;SDS011;33650;51.064;13.756;2022-10-16T02:13:03;6.93;;;4.53;;
47892;SDS011;33650;51.064;13.756;2022-10-16T02:15:34;10.25;;;6.95;;
47892;SDS011;33650;51.064;13.756;2022-10-16T02:18:05;9.45;;;5.20;;
47892;SDS011;33650;51.064;13.756;2022-10-16T02:20:44;4.32;;;3.65;;
47892;SDS011;33650;51.064;13.756;2022-10-16T02:23:29;6.35;;;4.57;;
47892;SDS011;33650;51.064;13.756;2022-10-16T02:26:01;4.85;;;3.67;;
47892;SDS011;33650;51.064;13.756;2022-10-16T02:28:36;5.20;;;3.40;;
47892;SDS011;33650;51.064;13.756;2022-10-16T02:31:10;7.18;;;4.72;;
47892;SDS011;33650;51.064;13.756;2022-10-16T02:33:41;5.93;;;5.32;;
47892;SDS011;33650;51.064;13.756;2022-10-16T02:36:13;8.48;;;4.90;;
47892;SDS011;33650;51.064;13.756;2022-10-16T02:38:45;5.25;;;4.18;;
47892;SDS011;33650;51.064;13.756;2022-10-16T02:41:16;6.28;;;4.10;;
47892;SDS011;33650;51.064;13.756;2022-10-16T02:43:47;6.65;;;4.95;;
47892;SDS011;33650;51.064;13.756;2022-10-16T02:46:19;6.28;;;4.05;;
47892;SDS011;33650;51.064;13.756;2022-10-16T02:48:50;6.45;;;4.40;;
47892;SDS011;33650;51.064;13.756;2022-10-16T02:51:21;6.70;;;4.60;;
47892;SDS011;33650;51.064;13.756;2022-10-16T02:53:52;5.20;;;4.50;;
47892;SDS011;33650;51.064;13.756;2022-10-16T02:56:23;6.15;;;4.85;;
47892;SDS011;33650;51.064;13.756;2022-10-16T02:58:54;4.93;;;4.28;;
47892;SDS011;33650;51.064;13.756;2022-10-16T03:01:25;7.75;;;4.63;;
47892;SDS011;33650;51.064;13.756;2022-10-16T03:03:56;7.38;;;3.63;;
47892;SDS011;33650;51.064;13.756;2022-10-16T03:06:27;5.03;;;4.45;;
47892;SDS011;33650;51.064;13.756;2022-10-16T03:08:58;5.60;;;4.10;;
47892;SDS011;33650;51.064;13.756;2022-10-16T03:11:29;5.60;;;4.43;;
47892;SDS011;33650;51.064;13.756;2022-10-16T03:14:00;5.80;;;3.65;;
47892;SDS011;33650;51.064;13.756;2022-10-16T03:16:31;5.35;;;4.03;;
47892;SDS011;33650;51.064;13.756;2022-10-16T03:19:02;4.63;;;3.35;;
47892;SDS011;33650;51.064;13.756;2022-10-16T03:21:33;6.53;;;4.95;;
47892;SDS011;33650;51.064;13.756;2022-10-16T03:24:04;6.28;;;4.13;;
47892;SDS011;33650;51.064;13.756;2022-10-16T03:26:36;4.60;;;3.67;;
47892;SDS011;33650;51.064;13.756;2022-10-16T03:29:07;4.65;;;4.07;;
47892;SDS011;33650;51.064;13.756;2022-10-16T03:31:38;6.80;;;5.53;;
47892;SDS011;33650;51.064;13.756;2022-10-16T03:34:09;5.15;;;3.35;;
47892;SDS011;33650;51.064;13.756;2022-10-16T03:36:40;4.55;;;4.15;;
47892;SDS011;33650;51.064;13.756;2022-10-16T03:39:11;6.22;;;3.55;;
47892;SDS011;33650;51.064;13.756;2022-10-16T03:41:42;5.10;;;4.35;;
47892;SDS011;33650;51.064;13.756;2022-10-16T03:44:13;5.65;;;4.57;;
47892;SDS011;33650;51.064;13.756;2022-10-16T03:46:44;5.70;;;4.95;;
47892;SDS011;33650;51.064;13.756;2022-10-16T03:49:15;7.65;;;5.43;;
47892;SDS011;33650;51.064;13.756;2022-10-16T03:51:46;6.60;;;4.72;;
47892;SDS011;33650;51.064;13.756;2022-10-16T03:54:17;6.55;;;4.80;;
47892;SDS011;33650;51.064;13.756;2022-10-16T03:56:48;7.32;;;4.40;;
47892;SDS011;33650;51.064;13.756;2022-10-16T03:59:19;5.93;;;4.30;;
47892;SDS011;33650;51.064;13.756;2022-10-16T04:01:50;4.07;;;3.30;;
47892;SDS011;33650;51.064;13.756;2022-10-16T04:04:21;6.20;;;3.10;;
47892;SDS011;33650;51.064;13.756;2022-10-16T04:06:52;6.50;;;3.42;;
47892;SDS011;33650;51.064;13.756;2022-10-16T04:09:23;4.43;;;3.85;;
47892;SDS011;33650;51.064;13.756;2022-10-16T04:11:54;6.03;;;3.90;;
47892;SDS011;33650;51.064;13.756;2022-10-16T04:14:25;5.25;;;3.35;;
47892;SDS011;33650;51.064;13.756;2022-10-16T04:16:56;6.35;;;4.55;;
47892;SDS011;33650;51.064;13.756;2022-10-16T04:19:27;6.80;;;3.28;;
47892;SDS011;33650;51.064;13.756;2022-10-16T04:21:58;7.68;;;4.22;;
47892;SDS011;33650;51.064;13.756;2022-10-16T04:24:29;6.28;;;4.75;;
47892;SDS011;33650;51.064;13.756;2022-10-16T04:27:00;5.70;;;5.15;;
47892;SDS011;33650;51.064;13.756;2022-10-16T04:29:31;5.53;;;4.38;;
47892;SDS011;33650;51.064;13.756;2022-10-16T04:32:02;7.60;;;5.72;;
47892;SDS011;33650;51.064;13.756;2022-10-16T04:34:33;5.35;;;4.25;;
47892;SDS011;33650;51.064;13.756;2022-10-16T04:37:04;6.32;;;4.47;;
47892;SDS011;33650;51.064;13.756;2022-10-16T04:39:36;6.28;;;4.40;;
47892;SDS011;33650;51.064;13.756;2022-10-16T04:42:07;4.60;;;4.07;;
47892;SDS011;33650;51.064;13.756;2022-10-16T04:44:38;7.93;;;5.15;;
47892;SDS011;33650;51.064;13.756;2022-10-16T04:47:09;5.30;;;4.03;;
47892;SDS011;33650;51.064;13.756;2022-10-16T04:49:41;6.82;;;4.90;;
47892;SDS011;33650;51.064;13.756;2022-10-16T04:52:12;6.18;;;4.07;;
47892;SDS011;33650;51.064;13.756;2022-10-16T04:54:43;6.97;;;5.15;;
47892;SDS011;33650;51.064;13.756;2022-10-16T04:57:15;4.10;;;3.58;;
47892;SDS011;33650;51.064;13.756;2022-10-16T04:59:46;6.18;;;5.50;;
47892;SDS011;33650;51.064;13.756;2022-10-16T05:02:17;3.60;;;3.25;;
47892;SDS011;33650;51.064;13.756;2022-10-16T05:04:48;4.25;;;3.65;;
47892;SDS011;33650;51.064;13.756;2022-10-16T05:07:19;4.45;;;3.60;;
47892;SDS011;33650;51.064;13.756;2022-10-16T05:09:50;4.10;;;3.70;;
47892;SDS011;33650;51.064;13.756;2022-10-16T05:12:21;6.43;;;5.10;;
47892;SDS011;33650;51.064;13.756;2022-10-16T05:14:52;4.20;;;3.80;;
47892;SDS011;33650;51.064;13.756;2022-10-16T05:17:28;5.70;;;3.83;;
47892;SDS011;33650;51.064;13.756;2022-10-16T05:19:59;5.55;;;3.00;;
47892;SDS011;33650;51.064;13.756;2022-10-16T05:22:30;4.53;;;3.67;;
47892;SDS011;33650;51.064;13.756;2022-10-16T05:25:01;5.97;;;4.47;;
47892;SDS011;33650;51.064;13.756;2022-10-16T05:27:32;6.30;;;5.07;;
47892;SDS011;33650;51.064;13.756;2022-10-16T05:30:03;5.10;;;4.30;;
47892;SDS011;33650;51.064;13.756;2022-10-16T05:32:34;6.07;;;4.38;;
47892;SDS011;33650;51.064;13.756;2022-10-16T05:35:05;4.68;;;4.00;;
47892;SDS011;33650;51.064;13.756;2022-10-16T05:37:36;6.47;;;4.47;;
47892;SDS011;33650;51.064;13.756;2022-10-16T05:40:08;5.15;;;4.05;;
47892;SDS011;33650;51.064;13.756;2022-10-16T05:42:40;7.38;;;4.53;;
47892;SDS011;33650;51.064;13.756;2022-10-16T05:45:11;5.40;;;3.92;;
47892;SDS011;33650;51.064;13.756;2022-10-16T05:47:42;5.47;;;3.83;;
47892;SDS011;33650;51.064;13.756;2022-10-16T05:50:13;5.97;;;4.03;;
47892;SDS011;33650;51.064;13.756;2022-10-16T05:52:44;5.75;;;4.07;;
47892;SDS011;33650;51.064;13.756;2022-10-16T05:55:15;4.82;;;3.72;;
47892;SDS011;33650;51.064;13.756;2022-10-16T05:57:46;6.07;;;4.57;;
47892;SDS011;33650;51.064;13.756;2022-10-16T06:00:17;5.53;;;3.63;;
47892;SDS011;33650;51.064;13.756;2022-10-16T06:02:48;4.38;;;3.33;;
47892;SDS011;33650;51.064;13.756;2022-10-16T06:05:19;5.68;;;5.10;;
47892;SDS011;33650;51.064;13.756;2022-10-16T06:07:50;6.50;;;5.50;;
47892;SDS011;33650;51.064;13.756;2022-10-16T06:10:21;7.78;;;4.43;;
47892;SDS011;33650;51.064;13.756;2022-10-16T06:12:53;5.00;;;4.30;;
47892;SDS011;33650;51.064;13.756;2022-10-16T06:15:24;16.08;;;5.78;;
47892;SDS011;33650;51.064;13.756;2022-10-16T06:17:54;5.88;;;4.28;;
47892;SDS011;33650;51.064;13.756;2022-10-16T06:20:25;6.47;;;4.47;;
47892;SDS011;33650;51.064;13.756;2022-10-16T06:22:57;4.35;;;3.10;;
47892;SDS011;33650;51.064;13.756;2022-10-16T06:25:28;6.22;;;3.67;;
47892;SDS011;33650;51.064;13.756;2022-10-16T06:27:59;7.07;;;4.28;;
47892;SDS011;33650;51.064;13.756;2022-10-16T06:30:30;4.65;;;3.83;;
47892;SDS011;33650;51.064;13.756;2022-10-16T06:33:01;4.97;;;3.97;;
47892;SDS011;33650;51.064;13.756;2022-10-16T06:35:32;6.28;;;4.18;;
47892;SDS011;33650;51.064;13.756;2022-10-16T06:38:03;6.13;;;4.45;;
47892;SDS011;33650;51.064;13.756;2022-10-16T06:40:34;5.90;;;4.93;;
47892;SDS011;33650;51.064;13.756;2022-10-16T06:43:05;6.28;;;4.85;;
47892;SDS011;33650;51.064;13.756;2022-10-16T06:45:36;5.53;;;4.38;;
47892;SDS011;33650;51.064;13.756;2022-10-16T06:48:07;6.60;;;4.25;;
47892;SDS011;33650;51.064;13.756;2022-10-16T06:50:38;5.68;;;4.82;;
47892;SDS011;33650;51.064;13.756;2022-10-16T06:53:09;6.28;;;4.72;;
47892;SDS011;33650;51.064;13.756;2022-10-16T06:55:40;5.25;;;4.68;;
47892;SDS011;33650;51.064;13.756;2022-10-16T06:58:11;7.60;;;4.80;;
47892;SDS011;33650;51.064;13.756;2022-10-16T07:00:42;7.70;;;4.47;;
47892;SDS011;33650;51.064;13.756;2022-10-16T07:03:14;7.85;;;5.28;;
47892;SDS011;33650;51.064;13.756;2022-10-16T07:05:45;10.07;;;5.20;;
47892;SDS011;33650;51.064;13.756;2022-10-16T07:08:16;6.78;;;5.82;;
47892;SDS011;33650;51.064;13.756;2022-10-16T07:10:47;7.00;;;6.05;;
47892;SDS011;33650;51.064;13.756;2022-10-16T07:13:18;5.38;;;4.65;;
47892;SDS011;33650;51.064;13.756;2022-10-16T07:15:49;6.32;;;5.72;;
47892;SDS011;33650;51.064;13.756;2022-10-16T07:18:20;5.93;;;3.80;;
47892;SDS011;33650;51.064;13.756;2022-10-16T07:21:02;6.55;;;5.35;;
47892;SDS011;33650;51.064;13.756;2022-10-16T07:23:33;6.88;;;4.72;;
47892;SDS011;33650;51.064;13.756;2022-10-16T07:26:05;6.38;;;4.47;;
47892;SDS011;33650;51.064;13.756;2022-10-16T07:28:36;5.60;;;4.85;;
47892;SDS011;33650;51.064;13.756;2022-10-16T07:31:09;5.30;;;4.07;;
47892;SDS011;33650;51.064;13.756;2022-10-16T07:33:41;6.35;;;5.70;;
47892;SDS011;33650;51.064;13.756;2022-10-16T07:36:15;7.53;;;5.90;;
47892;SDS011;33650;51.064;13.756;2022-10-16T07:38:46;9.23;;;5.28;;
47892;SDS011;33650;51.064;13.756;2022-10-16T07:41:18;8.95;;;4.57;;
47892;SDS011;33650;51.064;13.756;2022-10-16T07:43:51;6.25;;;4.53;;
47892;SDS011;33650;51.064;13.756;2022-10-16T07:46:22;5.20;;;3.83;;
47892;SDS011;33650;51.064;13.756;2022-10-16T07:48:53;4.85;;;3.70;;
47892;SDS011;33650;51.064;13.756;2022-10-16T07:51:25;8.50;;;6.75;;
47892;SDS011;33650;51.064;13.756;2022-10-16T07:53:56;5.03;;;3.65;;
47892;SDS011;33650;51.064;13.756;2022-10-16T07:56:27;5.78;;;5.05;;
47892;SDS011;33650;51.064;13.756;2022-10-16T07:58:58;6.55;;;4.70;;
47892;SDS011;33650;51.064;13.756;2022-10-16T08:01:29;8.00;;;4.97;;
47892;SDS011;33650;51.064;13.756;2022-10-16T08:04:00;6.90;;;3.80;;
47892;SDS011;33650;51.064;13.756;2022-10-16T08:06:34;5.45;;;3.63;;
47892;SDS011;33650;51.064;13.756;2022-10-16T08:09:06;4.90;;;3.30;;
47892;SDS011;33650;51.064;13.756;2022-10-16T08:11:37;4.93;;;3.53;;
47892;SDS011;33650;51.064;13.756;2022-10-16T08:14:08;4.80;;;4.25;;
47892;SDS011;33650;51.064;13.756;2022-10-16T08:16:39;5.47;;;3.63;;
47892;SDS011;33650;51.064;13.756;2022-10-16T08:19:10;4.93;;;4.43;;
47892;SDS011;33650;51.064;13.756;2022-10-16T08:21:41;4.55;;;3.35;;
47892;SDS011;33650;51.064;13.756;2022-10-16T08:24:12;3.45;;;2.88;;
47892;SDS011;33650;51.064;13.756;2022-10-16T08:26:43;3.85;;;3.30;;
47892;SDS011;33650;51.064;13.756;2022-10-16T08:29:14;4.00;;;3.33;;
47892;SDS011;33650;51.064;13.756;2022-10-16T08:31:45;3.88;;;2.92;;
47892;SDS011;33650;51.064;13.756;2022-10-16T08:34:16;5.93;;;3.33;;
47892;SDS011;33650;51.064;13.756;2022-10-16T08:36:47;4.75;;;4.28;;
47892;SDS011;33650;51.064;13.756;2022-10-16T08:39:18;3.17;;;2.95;;
47892;SDS011;33650;51.064;13.756;2022-10-16T08:47:45;3.25;;;2.95;;
47892;SDS011;33650;51.064;13.756;2022-10-16T08:50:23;3.35;;;3.03;;
47892;SDS011;33650;51.064;13.756;2022-10-16T08:52:55;2.85;;;2.33;;
47892;SDS011;33650;51.064;13.756;2022-10-16T08:57:59;2.53;;;2.25;;
47892;SDS011;33650;51.064;13.756;2022-10-16T09:00:31;2.92;;;2.72;;
47892;SDS011;33650;51.064;13.756;2022-10-16T09:03:04;4.20;;;3.03;;
47892;SDS011;33650;51.064;13.756;2022-10-16T09:10:59;3.92;;;3.08;;
47892;SDS011;33650;51.064;13.756;2022-10-16T09:13:43;4.32;;;3.10;;
47892;SDS011;33650;51.064;13.756;2022-10-16T09:16:22;3.35;;;3.05;;
47892;SDS011;33650;51.064;13.756;2022-10-16T09:18:57;4.75;;;3.03;;
47892;SDS011;33650;51.064;13.756;2022-10-16T09:21:39;2.42;;;2.22;;
47892;SDS011;33650;51.064;13.756;2022-10-16T09:24:21;4.03;;;3.60;;
47892;SDS011;33650;51.064;13.756;2022-10-16T09:26:54;4.15;;;3.75;;
47892;SDS011;33650;51.064;13.756;2022-10-16T09:29:25;6.68;;;3.58;;
47892;SDS011;33650;51.064;13.756;2022-10-16T09:32:10;3.40;;;2.65;;
47892;SDS011;33650;51.064;13.756;2022-10-16T09:34:43;4.97;;;3.65;;
47892;SDS011;33650;51.064;13.756;2022-10-16T09:37:20;4.00;;;2.88;;
47892;SDS011;33650;51.064;13.756;2022-10-16T09:39:52;4.47;;;3.10;;
47892;SDS011;33650;51.064;13.756;2022-10-16T09:42:30;3.55;;;2.33;;
47892;SDS011;33650;51.064;13.756;2022-10-16T09:45:02;2.88;;;2.67;;
47892;SDS011;33650;51.064;13.756;2022-10-16T09:47:35;4.38;;;3.80;;
47892;SDS011;33650;51.064;13.756;2022-10-16T09:50:28;2.45;;;2.05;;
47892;SDS011;33650;51.064;13.756;2022-10-16T09:55:30;2.35;;;2.15;;
47892;SDS011;33650;51.064;13.756;2022-10-16T09:58:02;2.53;;;2.20;;
47892;SDS011;33650;51.064;13.756;2022-10-16T10:00:33;2.47;;;2.13;;
47892;SDS011;33650;51.064;13.756;2022-10-16T10:03:08;3.90;;;2.45;;
47892;SDS011;33650;51.064;13.756;2022-10-16T10:05:41;3.63;;;2.42;;
47892;SDS011;33650;51.064;13.756;2022-10-16T10:08:12;2.28;;;1.98;;
47892;SDS011;33650;51.064;13.756;2022-10-16T10:10:45;6.78;;;3.55;;
47892;SDS011;33650;51.064;13.756;2022-10-16T10:13:19;1.20;;;1.10;;
47892;SDS011;33650;51.064;13.756;2022-10-16T10:15:51;1.58;;;1.08;;
47892;SDS011;33650;51.064;13.756;2022-10-16T10:18:22;2.35;;;2.15;;
47892;SDS011;33650;51.064;13.756;2022-10-16T10:20:58;1.73;;;1.52;;
47892;SDS011;33650;51.064;13.756;2022-10-16T10:23:30;1.45;;;1.35;;
47892;SDS011;33650;51.064;13.756;2022-10-16T10:28:43;1.67;;;1.58;;
47892;SDS011;33650;51.064;13.756;2022-10-16T10:31:18;1.67;;;1.40;;
47892;SDS011;33650;51.064;13.756;2022-10-16T10:33:58;3.03;;;1.92;;
47892;SDS011;33650;51.064;13.756;2022-10-16T10:36:39;1.67;;;1.00;;
47892;SDS011;33650;51.064;13.756;2022-10-16T10:39:15;0.98;;;0.85;;
47892;SDS011;33650;51.064;13.756;2022-10-16T11:00:28;0.25;;;0.25;;
47892;SDS011;33650;51.064;13.756;2022-10-16T11:05:42;0.30;;;0.20;;
47892;SDS011;33650;51.064;13.756;2022-10-16T11:08:17;0.30;;;0.30;;
47892;SDS011;33650;51.064;13.756;2022-10-16T11:10:57;0.63;;;0.50;;
47892;SDS011;33650;51.064;13.756;2022-10-16T11:13:36;0.63;;;0.35;;
47892;SDS011;33650;51.064;13.756;2022-10-16T11:16:14;0.20;;;0.20;;
47892;SDS011;33650;51.064;13.756;2022-10-16T11:18:51;0.80;;;0.38;;
47892;SDS011;33650;51.064;13.756;2022-10-16T11:21:26;0.30;;;0.30;;
47892;SDS011;33650;51.064;13.756;2022-10-16T11:24:06;0.20;;;0.13;;
47892;SDS011;33650;51.064;13.756;2022-10-16T11:26:41;0.20;;;0.20;;
47892;SDS011;33650;51.064;13.756;2022-10-16T11:29:16;0.30;;;0.30;;
47892;SDS011;33650;51.064;13.756;2022-10-16T11:31:50;0.20;;;0.20;;
47892;SDS011;33650;51.064;13.756;2022-10-16T11:34:26;0.82;;;0.50;;
47892;SDS011;33650;51.064;13.756;2022-10-16T11:37:00;0.20;;;0.20;;
47892;SDS011;33650;51.064;13.756;2022-10-16T11:39:33;0.30;;;0.30;;
47892;SDS011;33650;51.064;13.756;2022-10-16T11:42:11;0.30;;;0.30;;
47892;SDS011;33650;51.064;13.756;2022-10-16T11:49:46;0.40;;;0.40;;
47892;SDS011;33650;51.064;13.756;2022-10-16T11:52:25;0.20;;;0.20;;
47892;SDS011;33650;51.064;13.756;2022-10-16T11:55:01;0.20;;;0.20;;
47892;SDS011;33650;51.064;13.756;2022-10-16T11:57:35;0.65;;;0.28;;
47892;SDS011;33650;51.064;13.756;2022-10-16T12:00:14;0.40;;;0.40;;
47892;SDS011;33650;51.064;13.756;2022-10-16T12:08:20;0.13;;;0.13;;
47892;SDS011;33650;51.064;13.756;2022-10-16T12:10:51;0.20;;;0.20;;
47892;SDS011;33650;51.064;13.756;2022-10-16T12:16:07;0.30;;;0.30;;
47892;SDS011;33650;51.064;13.756;2022-10-16T12:18:49;0.20;;;0.20;;
47892;SDS011;33650;51.064;13.756;2022-10-16T12:21:21;0.40;;;0.30;;
47892;SDS011;33650;51.064;13.756;2022-10-16T12:24:01;0.40;;;0.40;;
47892;SDS011;33650;51.064;13.756;2022-10-16T12:26:37;0.40;;;0.40;;
47892;SDS011;33650;51.064;13.756;2022-10-16T12:29:23;0.73;;;0.20;;
47892;SDS011;33650;51.064;13.756;2022-10-16T12:31:59;0.15;;;0.15;;
47892;SDS011;33650;51.064;13.756;2022-10-16T12:34:42;0.30;;;0.30;;
47892;SDS011;33650;51.064;13.756;2022-10-16T12:37:15;0.50;;;0.50;;
47892;SDS011;33650;51.064;13.756;2022-10-16T12:39:50;0.20;;;0.20;;
47892;SDS011;33650;51.064;13.756;2022-10-16T12:44:56;0.40;;;0.40;;
47892;SDS011;33650;51.064;13.756;2022-10-16T12:50:01;0.30;;;0.30;;
47892;SDS011;33650;51.064;13.756;2022-10-16T12:52:36;0.30;;;0.30;;
47892;SDS011;33650;51.064;13.756;2022-10-16T12:55:12;0.20;;;0.20;;
47892;SDS011;33650;51.064;13.756;2022-10-16T13:11:49;3.22;;;0.40;;
47892;SDS011;33650;51.064;13.756;2022-10-16T13:17:09;0.40;;;0.40;;
47892;SDS011;33650;51.064;13.756;2022-10-16T13:22:47;1.15;;;0.50;;
47892;SDS011;33650;51.064;13.756;2022-10-16T13:27:58;0.70;;;0.30;;
47892;SDS011;33650;51.064;13.756;2022-10-16T13:30:31;0.85;;;0.60;;
47892;SDS011;33650;51.064;13.756;2022-10-16T13:33:04;0.28;;;0.28;;
47892;SDS011;33650;51.064;13.756;2022-10-16T13:35:36;0.80;;;0.63;;
47892;SDS011;33650;51.064;13.756;2022-10-16T13:38:14;0.30;;;0.30;;
47892;SDS011;33650;51.064;13.756;2022-10-16T13:43:24;0.65;;;0.65;;
47892;SDS011;33650;51.064;13.756;2022-10-16T13:46:00;0.22;;;0.22;;
47892;SDS011;33650;51.064;13.756;2022-10-16T13:48:32;0.30;;;0.30;;
47892;SDS011;33650;51.064;13.756;2022-10-16T13:51:05;1.08;;;0.30;;
47892;SDS011;33650;51.064;13.756;2022-10-16T13:53:37;0.80;;;0.38;;
47892;SDS011;33650;51.064;13.756;2022-10-16T13:56:14;0.17;;;0.17;;
47892;SDS011;33650;51.064;13.756;2022-10-16T13:58:46;0.45;;;0.30;;
47892;SDS011;33650;51.064;13.756;2022-10-16T14:01:20;0.73;;;0.68;;
47892;SDS011;33650;51.064;13.756;2022-10-16T14:03:59;0.35;;;0.30;;
47892;SDS011;33650;51.064;13.756;2022-10-16T14:06:31;2.15;;;0.30;;
47892;SDS011;33650;51.064;13.756;2022-10-16T14:09:20;0.43;;;0.43;;
47892;SDS011;33650;51.064;13.756;2022-10-16T14:14:23;0.40;;;0.40;;
47892;SDS011;33650;51.064;13.756;2022-10-16T14:16:55;0.88;;;0.35;;
47892;SDS011;33650;51.064;13.756;2022-10-16T14:19:27;1.73;;;0.95;;
47892;SDS011;33650;51.064;13.756;2022-10-16T14:21:59;0.20;;;0.20;;
47892;SDS011;33650;51.064;13.756;2022-10-16T14:24:33;0.75;;;0.75;;
47892;SDS011;33650;51.064;13.756;2022-10-16T14:27:20;0.52;;;0.47;;
47892;SDS011;33650;51.064;13.756;2022-10-16T14:30:13;1.50;;;0.65;;
47892;SDS011;33650;51.064;13.756;2022-10-16T14:32:56;2.45;;;1.15;;
47892;SDS011;33650;51.064;13.756;2022-10-16T14:35:35;0.50;;;0.50;;
47892;SDS011;33650;51.064;13.756;2022-10-16T14:38:14;0.65;;;0.40;;
47892;SDS011;33650;51.064;13.756;2022-10-16T14:40:47;1.17;;;0.73;;
47892;SDS011;33650;51.064;13.756;2022-10-16T14:43:52;0.73;;;0.57;;
47892;SDS011;33650;51.064;13.756;2022-10-16T14:46:16;1.48;;;1.25;;
47892;SDS011;33650;51.064;13.756;2022-10-16T14:48:51;0.90;;;0.57;;
47892;SDS011;33650;51.064;13.756;2022-10-16T14:51:25;5.28;;;2.95;;
47892;SDS011;33650;51.064;13.756;2022-10-16T14:53:56;1.02;;;0.95;;
47892;SDS011;33650;51.064;13.756;2022-10-16T14:56:32;1.67;;;0.20;;
47892;SDS011;33650;51.064;13.756;2022-10-16T14:59:12;0.20;;;0.20;;
47892;SDS011;33650;51.064;13.756;2022-10-16T15:01:44;0.57;;;0.57;;
47892;SDS011;33650;51.064;13.756;2022-10-16T15:04:16;0.47;;;0.47;;
47892;SDS011;33650;51.064;13.756;2022-10-16T15:06:47;0.47;;;0.30;;
47892;SDS011;33650;51.064;13.756;2022-10-16T15:09:18;0.52;;;0.50;;
47892;SDS011;33650;51.064;13.756;2022-10-16T15:11:49;0.30;;;0.30;;
47892;SDS011;33650;51.064;13.756;2022-10-16T15:14:21;1.05;;;0.75;;
47892;SDS011;33650;51.064;13.756;2022-10-16T15:16:52;0.82;;;0.60;;
47892;SDS011;33650;51.064;13.756;2022-10-16T15:19:23;0.50;;;0.50;;
47892;SDS011;33650;51.064;13.756;2022-10-16T15:21:54;0.85;;;0.55;;
47892;SDS011;33650;51.064;13.756;2022-10-16T15:24:26;0.38;;;0.38;;
47892;SDS011;33650;51.064;13.756;2022-10-16T15:26:57;0.40;;;0.40;;
47892;SDS011;33650;51.064;13.756;2022-10-16T15:29:28;2.05;;;0.65;;
47892;SDS011;33650;51.064;13.756;2022-10-16T15:31:59;0.95;;;0.82;;
47892;SDS011;33650;51.064;13.756;2022-10-16T15:34:30;0.28;;;0.28;;
47892;SDS011;33650;51.064;13.756;2022-10-16T15:37:04;0.93;;;0.85;;
47892;SDS011;33650;51.064;13.756;2022-10-16T15:39:35;0.75;;;0.60;;
47892;SDS011;33650;51.064;13.756;2022-10-16T15:42:06;1.75;;;0.63;;
47892;SDS011;33650;51.064;13.756;2022-10-16T15:44:37;1.85;;;1.17;;
47892;SDS011;33650;51.064;13.756;2022-10-16T15:47:08;1.77;;;1.67;;
47892;SDS011;33650;51.064;13.756;2022-10-16T15:49:39;0.60;;;0.43;;
47892;SDS011;33650;51.064;13.756;2022-10-16T15:52:10;0.43;;;0.43;;
47892;SDS011;33650;51.064;13.756;2022-10-16T15:54:41;1.15;;;1.05;;
47892;SDS011;33650;51.064;13.756;2022-10-16T15:57:12;1.05;;;0.60;;
47892;SDS011;33650;51.064;13.756;2022-10-16T15:59:43;0.60;;;0.60;;
47892;SDS011;33650;51.064;13.756;2022-10-16T16:02:14;0.52;;;0.40;;
47892;SDS011;33650;51.064;13.756;2022-10-16T16:04:46;1.63;;;0.95;;
47892;SDS011;33650;51.064;13.756;2022-10-16T16:07:17;1.73;;;1.00;;
47892;SDS011;33650;51.064;13.756;2022-10-16T16:09:48;1.55;;;1.02;;
47892;SDS011;33650;51.064;13.756;2022-10-16T16:12:19;1.38;;;0.82;;
47892;SDS011;33650;51.064;13.756;2022-10-16T16:14:50;1.20;;;0.98;;
47892;SDS011;33650;51.064;13.756;2022-10-16T16:17:21;1.58;;;1.40;;
47892;SDS011;33650;51.064;13.756;2022-10-16T16:19:53;1.02;;;1.00;;
47892;SDS011;33650;51.064;13.756;2022-10-16T16:22:24;1.88;;;1.00;;
47892;SDS011;33650;51.064;13.756;2022-10-16T16:24:55;0.65;;;0.65;;
47892;SDS011;33650;51.064;13.756;2022-10-16T16:27:26;0.85;;;0.75;;
47892;SDS011;33650;51.064;13.756;2022-10-16T16:30:00;2.97;;;1.60;;
47892;SDS011;33650;51.064;13.756;2022-10-16T16:32:34;3.65;;;2.05;;
47892;SDS011;33650;51.064;13.756;2022-10-16T16:35:05;1.75;;;1.35;;
47892;SDS011;33650;51.064;13.756;2022-10-16T16:37:36;1.02;;;0.95;;
47892;SDS011;33650;51.064;13.756;2022-10-16T16:40:07;6.32;;;2.80;;
47892;SDS011;33650;51.064;13.756;2022-10-16T16:42:38;3.60;;;1.08;;
47892;SDS011;33650;51.064;13.756;2022-10-16T16:45:09;1.05;;;0.95;;